createdAt,value
2022-11-08T00:01:04.499Z,3.67
2022-11-08T00:03:31.205Z,3.17
2022-11-08T00:05:57.754Z,4.72
2022-11-08T00:08:24.377Z,2.33
2022-11-08T00:10:50.923Z,3.25
2022-11-08T00:13:19.097Z,4.68
2022-11-08T00:15:45.658Z,2.60
2022-11-08T00:18:12.193Z,4.00
2022-11-08T00:20:38.711Z,2.70
2022-11-08T00:23:06.852Z,3.58
2022-11-08T00:25:33.387Z,2.83
2022-11-08T00:28:00.120Z,6.40
2022-11-08T00:30:28.075Z,2.78
2022-11-08T00:32:54.658Z,7.63
2022-11-08T00:35:21.181Z,3.95
2022-11-08T00:37:47.684Z,7.95
2022-11-08T00:40:14.303Z,4.75
2022-11-08T00:42:40.839Z,2.45
2022-11-08T00:45:08.008Z,6.05
2022-11-08T00:47:36.184Z,4.55
2022-11-08T00:50:02.757Z,4.40
2022-11-08T00:52:29.283Z,3.58
2022-11-08T00:54:55.799Z,4.15
2022-11-08T00:57:35.612Z,3.40
2022-11-08T01:00:10.000Z,4.63
2022-11-08T01:02:37.985Z,2.80
2022-11-08T01:05:05.242Z,2.97
2022-11-08T01:07:31.795Z,3.50
2022-11-08T01:09:58.297Z,6.35
2022-11-08T01:12:24.850Z,4.72
2022-11-08T01:14:51.371Z,3.60
2022-11-08T01:17:17.919Z,3.40
2022-11-08T01:19:46.042Z,4.70
2022-11-08T01:22:12.603Z,4.07
2022-11-08T01:24:39.131Z,3.55
2022-11-08T01:27:05.698Z,9.20
2022-11-08T01:29:33.266Z,3.10
2022-11-08T01:31:59.820Z,5.00
2022-11-08T01:34:26.370Z,4.18
2022-11-08T01:36:54.313Z,4.00
2022-11-08T01:39:20.865Z,5.22
2022-11-08T01:41:47.444Z,3.40
2022-11-08T01:44:16.541Z,4.97
2022-11-08T01:46:45.700Z,6.38
2022-11-08T01:49:43.809Z,4.88
2022-11-08T01:52:34.416Z,3.60
2022-11-08T01:55:09.885Z,4.32
2022-11-08T01:57:42.986Z,4.00
2022-11-08T02:00:11.598Z,6.75
2022-11-08T02:02:40.753Z,4.28
2022-11-08T02:05:12.566Z,3.75
2022-11-08T02:07:40.529Z,5.63
2022-11-08T02:10:08.097Z,4.00
2022-11-08T02:12:34.667Z,3.63
2022-11-08T02:15:01.481Z,5.15
2022-11-08T02:17:28.041Z,4.63
2022-11-08T02:19:54.588Z,2.92
2022-11-08T02:22:29.060Z,6.03
2022-11-08T02:24:57.589Z,5.28
2022-11-08T02:27:24.845Z,3.20
2022-11-08T02:29:52.703Z,3.80
2022-11-08T02:32:19.650Z,2.90
2022-11-08T02:34:48.739Z,4.78
2022-11-08T02:37:18.588Z,3.08
2022-11-08T02:39:45.201Z,4.10
2022-11-08T02:42:15.226Z,2.88
2022-11-08T02:44:41.853Z,4.60
2022-11-08T02:47:08.404Z,3.85
2022-11-08T02:49:34.978Z,4.13
2022-11-08T02:52:01.540Z,3.67
2022-11-08T02:54:28.097Z,4.38
2022-11-08T02:56:54.649Z,3.30
2022-11-08T02:59:22.584Z,3.28
2022-11-08T03:01:49.367Z,3.30
2022-11-08T03:04:16.299Z,3.38
2022-11-08T03:06:42.855Z,4.13
2022-11-08T03:09:09.593Z,5.22
2022-11-08T03:11:36.188Z,3.78
2022-11-08T03:14:02.747Z,4.78
2022-11-08T03:16:31.196Z,7.70
2022-11-08T03:18:57.755Z,5.15
2022-11-08T03:21:24.300Z,5.45
2022-11-08T03:23:50.936Z,3.97
2022-11-08T03:26:17.495Z,3.10
2022-11-08T03:28:44.061Z,7.20
2022-11-08T03:31:10.629Z,4.55
2022-11-08T03:33:38.573Z,3.75
2022-11-08T03:36:05.697Z,4.15
2022-11-08T03:38:32.269Z,4.53
2022-11-08T03:40:58.802Z,5.05
2022-11-08T03:43:25.951Z,5.05
2022-11-08T03:45:52.483Z,3.92
2022-11-08T03:48:19.388Z,7.93
2022-11-08T03:50:47.432Z,6.18
2022-11-08T03:53:14.146Z,5.65
2022-11-08T03:55:40.686Z,3.55
2022-11-08T03:58:07.265Z,7.63
2022-11-08T04:00:33.817Z,5.18
2022-11-08T04:03:02.156Z,4.97
2022-11-08T04:05:29.319Z,3.28
2022-11-08T04:07:57.252Z,4.22
2022-11-08T04:10:40.214Z,4.85
2022-11-08T04:13:06.757Z,6.57
2022-11-08T04:15:33.282Z,5.25
2022-11-08T04:17:59.928Z,5.25
2022-11-08T04:20:26.858Z,6.28
2022-11-08T04:22:53.358Z,7.05
2022-11-08T04:25:21.234Z,6.63
2022-11-08T04:27:47.747Z,8.07
2022-11-08T04:30:14.320Z,7.32
2022-11-08T04:32:40.833Z,9.88
2022-11-08T04:35:07.883Z,8.65
2022-11-08T04:37:34.414Z,7.93
2022-11-08T04:40:00.964Z,8.80
2022-11-08T04:42:28.822Z,7.68
2022-11-08T04:44:55.357Z,8.57
2022-11-08T04:47:21.927Z,7.85
2022-11-08T04:49:48.499Z,10.57
2022-11-08T04:52:15.595Z,10.55
2022-11-08T04:54:42.165Z,8.82
2022-11-08T04:57:08.689Z,7.38
2022-11-08T04:59:36.588Z,5.80
2022-11-08T05:02:03.231Z,7.20
2022-11-08T05:04:29.886Z,9.27
2022-11-08T05:06:56.370Z,11.63
2022-11-08T05:09:22.915Z,12.77
2022-11-08T05:11:49.655Z,8.20
2022-11-08T05:14:16.214Z,6.65
2022-11-08T05:16:44.063Z,5.10
2022-11-08T05:19:13.243Z,7.68
2022-11-08T05:21:40.112Z,5.93
2022-11-08T05:24:09.380Z,6.28
2022-11-08T05:26:37.715Z,6.45
2022-11-08T05:29:04.794Z,5.88
2022-11-08T05:31:31.422Z,5.30
2022-11-08T05:33:59.679Z,5.07
2022-11-08T05:36:26.878Z,6.13
2022-11-08T05:38:53.412Z,5.97
2022-11-08T05:41:21.738Z,7.55
2022-11-08T05:43:50.131Z,6.32
2022-11-08T05:46:18.142Z,5.38
2022-11-08T05:48:45.469Z,7.32
2022-11-08T05:51:14.807Z,5.45
2022-11-08T05:53:41.330Z,6.97
2022-11-08T05:56:08.345Z,10.75
2022-11-08T05:58:35.790Z,5.05
2022-11-08T06:01:03.973Z,12.10
2022-11-08T06:03:31.653Z,11.48
2022-11-08T06:06:01.784Z,10.25
2022-11-08T06:08:29.643Z,7.30
2022-11-08T06:11:02.279Z,9.07
2022-11-08T06:13:29.256Z,10.52
2022-11-08T06:15:59.597Z,9.07
2022-11-08T06:18:26.356Z,11.50
2022-11-08T06:20:52.836Z,13.68
2022-11-08T06:23:19.744Z,9.80
2022-11-08T06:25:48.092Z,8.93
2022-11-08T06:28:14.619Z,9.10
2022-11-08T06:30:41.186Z,9.60
2022-11-08T06:33:08.075Z,9.40
2022-11-08T06:35:36.046Z,10.82
2022-11-08T06:38:06.908Z,15.10
2022-11-08T06:40:37.039Z,9.10
2022-11-08T06:43:05.246Z,8.40
2022-11-08T06:45:32.277Z,8.27
2022-11-08T06:48:01.028Z,10.73
2022-11-08T06:50:28.941Z,12.40
2022-11-08T06:52:56.203Z,8.25
2022-11-08T06:55:22.757Z,9.23
2022-11-08T06:57:49.267Z,7.70
2022-11-08T07:00:17.926Z,9.68
2022-11-08T07:02:44.604Z,8.23
2022-11-08T07:05:11.966Z,8.55
2022-11-08T07:07:39.012Z,8.57
2022-11-08T07:10:06.720Z,7.82
2022-11-08T07:12:33.790Z,9.23
2022-11-08T07:15:00.301Z,14.13
2022-11-08T07:17:28.158Z,13.00
2022-11-08T07:19:54.665Z,10.32
2022-11-08T07:22:21.189Z,11.75
2022-11-08T07:24:47.720Z,10.25
2022-11-08T07:27:14.212Z,10.98
2022-11-08T07:29:40.732Z,22.38
2022-11-08T07:32:07.314Z,25.17
2022-11-08T07:34:35.256Z,14.13
2022-11-08T07:37:01.854Z,11.75
2022-11-08T07:39:28.378Z,12.45
2022-11-08T07:41:54.882Z,16.38
2022-11-08T07:44:21.398Z,11.55
2022-11-08T07:46:47.906Z,11.93
2022-11-08T07:49:14.416Z,12.68
2022-11-08T07:51:42.263Z,11.05
2022-11-08T07:54:08.787Z,13.13
2022-11-08T07:56:35.288Z,10.02
2022-11-08T07:59:01.816Z,9.95
2022-11-08T08:01:28.439Z,10.20
2022-11-08T08:03:55.022Z,10.95
2022-11-08T08:06:21.648Z,10.13
2022-11-08T08:08:49.793Z,11.63
2022-11-08T08:11:16.375Z,13.05
2022-11-08T08:13:42.910Z,13.27
2022-11-08T08:16:09.511Z,17.67
2022-11-08T08:18:36.029Z,11.85
2022-11-08T08:21:02.540Z,11.07
2022-11-08T08:23:29.024Z,10.90
2022-11-08T08:25:56.902Z,13.07
2022-11-08T08:28:23.438Z,12.57
2022-11-08T08:30:49.962Z,13.68
2022-11-08T08:33:33.488Z,13.23
2022-11-08T08:36:00.509Z,12.05
2022-11-08T08:38:27.282Z,16.58
2022-11-08T08:40:53.806Z,12.68
2022-11-08T08:43:22.274Z,11.57
2022-11-08T08:45:49.201Z,20.55
2022-11-08T08:48:15.820Z,18.88
2022-11-08T08:50:42.371Z,18.10
2022-11-08T08:53:10.443Z,13.55
2022-11-08T08:55:38.325Z,21.73
2022-11-08T08:58:04.819Z,17.25
2022-11-08T09:03:20.275Z,19.50
2022-11-08T09:05:47.470Z,16.05
2022-11-08T09:08:14.738Z,15.93
2022-11-08T09:10:41.838Z,18.42
2022-11-08T09:13:08.564Z,21.67
2022-11-08T09:15:36.416Z,17.58
2022-11-08T09:18:02.972Z,17.58
2022-11-08T09:20:29.541Z,18.33
2022-11-08T09:22:56.073Z,20.80
2022-11-08T09:25:22.581Z,19.77
2022-11-08T09:27:49.101Z,16.67
2022-11-08T09:30:15.676Z,18.83
2022-11-08T09:33:00.487Z,20.38
2022-11-08T09:35:28.712Z,17.00
2022-11-08T09:37:55.698Z,12.95
2022-11-08T09:40:27.489Z,15.75
2022-11-08T09:43:04.864Z,14.55
2022-11-08T09:45:39.580Z,11.27
2022-11-08T09:48:20.166Z,9.90
2022-11-08T09:50:46.953Z,9.82
2022-11-08T09:53:18.073Z,9.93
2022-11-08T09:55:50.375Z,6.47
2022-11-08T09:58:26.174Z,6.95
2022-11-08T10:00:52.722Z,7.28
2022-11-08T10:03:23.991Z,7.32
2022-11-08T10:06:18.820Z,7.28
2022-11-08T10:08:55.655Z,7.80
2022-11-08T10:11:40.810Z,8.52
2022-11-08T10:14:18.163Z,9.30
2022-11-08T10:16:54.818Z,6.47
2022-11-08T10:19:37.668Z,7.10
2022-11-08T10:22:12.450Z,6.85
2022-11-08T10:24:51.641Z,6.43
2022-11-08T10:27:31.308Z,6.13
2022-11-08T10:30:02.039Z,7.35
2022-11-08T10:32:30.343Z,7.47
2022-11-08T10:35:05.957Z,5.95
2022-11-08T10:37:33.526Z,5.22
2022-11-08T10:40:05.570Z,5.70
2022-11-08T10:42:42.893Z,4.60
2022-11-08T10:45:10.270Z,8.70
2022-11-08T10:47:37.907Z,7.03
2022-11-08T10:50:14.503Z,5.88
2022-11-08T10:52:45.204Z,7.78
2022-11-08T10:55:24.964Z,5.28
2022-11-08T10:57:51.645Z,6.00
2022-11-08T11:00:26.362Z,4.88
2022-11-08T11:02:54.474Z,4.35
2022-11-08T11:05:28.210Z,4.32
2022-11-08T11:08:02.256Z,4.10
2022-11-08T11:10:31.472Z,5.13
2022-11-08T11:13:04.120Z,5.18
2022-11-08T11:15:36.699Z,7.15
2022-11-08T11:18:04.601Z,5.18
2022-11-08T11:20:33.162Z,4.97
2022-11-08T11:23:00.106Z,8.45
2022-11-08T11:25:26.825Z,8.55
2022-11-08T11:27:56.456Z,7.90
2022-11-08T11:30:29.453Z,5.50
2022-11-08T11:33:01.994Z,6.13
2022-11-08T11:35:37.336Z,5.47
2022-11-08T11:38:10.889Z,6.95
2022-11-08T11:40:42.373Z,5.75
2022-11-08T11:43:15.058Z,6.70
2022-11-08T11:45:46.852Z,6.40
2022-11-08T11:48:17.312Z,7.43
2022-11-08T11:50:49.645Z,6.97
2022-11-08T11:53:20.200Z,7.07
2022-11-08T11:56:18.703Z,6.22
2022-11-08T11:58:58.246Z,8.88
2022-11-08T12:01:35.590Z,5.55
2022-11-08T12:04:20.737Z,6.63
2022-11-08T12:07:02.155Z,5.28
2022-11-08T12:09:45.377Z,6.85
2022-11-08T12:12:22.265Z,6.45
2022-11-08T12:14:56.896Z,5.22
2022-11-08T12:17:40.171Z,6.20
2022-11-08T12:20:25.811Z,4.97
2022-11-08T12:23:11.112Z,6.55
2022-11-08T12:25:47.064Z,7.10
2022-11-08T12:28:29.729Z,5.85
2022-11-08T12:31:03.417Z,8.57
2022-11-08T12:33:40.134Z,4.38
2022-11-08T12:36:17.350Z,7.18
2022-11-08T12:38:56.624Z,3.85
2022-11-08T12:41:32.401Z,5.40
2022-11-08T12:44:22.792Z,6.20
2022-11-08T12:47:05.165Z,6.47
2022-11-08T12:49:39.521Z,4.00
2022-11-08T12:52:20.935Z,5.40
2022-11-08T12:54:53.528Z,5.03
2022-11-08T12:57:20.880Z,5.43
2022-11-08T12:59:52.232Z,3.38
2022-11-08T13:02:21.646Z,5.35
2022-11-08T13:04:54.932Z,5.50
2022-11-08T13:07:30.691Z,3.20
2022-11-08T13:10:05.016Z,4.20
2022-11-08T13:12:41.173Z,4.53
2022-11-08T13:15:16.195Z,5.40
2022-11-08T13:18:22.865Z,4.03
2022-11-08T13:20:50.099Z,3.20
2022-11-08T13:23:29.525Z,4.05
2022-11-08T13:26:12.724Z,4.65
2022-11-08T13:28:44.174Z,3.63
2022-11-08T13:31:25.216Z,7.88
2022-11-08T13:34:12.127Z,6.70
2022-11-08T13:36:50.942Z,6.07
2022-11-08T13:39:45.111Z,4.72
2022-11-08T13:42:29.366Z,4.35
2022-11-08T13:44:58.608Z,3.45
2022-11-08T13:47:54.843Z,4.25
2022-11-08T13:50:50.552Z,5.50
2022-11-08T13:53:52.276Z,5.20
2022-11-08T13:56:38.854Z,7.55
2022-11-08T13:59:54.269Z,4.78
2022-11-08T14:02:36.554Z,6.18
2022-11-08T14:05:29.570Z,4.90
2022-11-08T14:08:22.793Z,4.78
2022-11-08T14:11:05.547Z,5.15
2022-11-08T14:13:40.291Z,6.28
2022-11-08T14:16:14.400Z,7.35
2022-11-08T14:18:44.046Z,5.85
2022-11-08T14:21:16.741Z,5.43
2022-11-08T14:23:46.111Z,5.65
2022-11-08T14:26:15.554Z,5.43
2022-11-08T14:28:43.944Z,5.57
2022-11-08T14:31:24.683Z,5.80
2022-11-08T14:33:53.175Z,7.18
2022-11-08T14:36:21.392Z,4.80
2022-11-08T14:38:50.359Z,6.75
2022-11-08T14:41:25.280Z,6.45
2022-11-08T14:43:54.081Z,4.95
2022-11-08T14:46:28.343Z,5.22
2022-11-08T14:48:57.558Z,5.53
2022-11-08T14:51:24.915Z,7.43
2022-11-08T14:53:52.535Z,7.10
2022-11-08T14:56:20.811Z,4.60
2022-11-08T14:58:48.793Z,6.38
2022-11-08T15:01:19.459Z,4.07
2022-11-08T15:03:51.539Z,5.82
2022-11-08T15:06:19.682Z,3.55
2022-11-08T15:08:49.691Z,5.43
2022-11-08T15:11:26.710Z,3.00
2022-11-08T15:13:54.459Z,3.75
2022-11-08T15:16:21.243Z,6.32
2022-11-08T15:18:47.789Z,9.10
2022-11-08T15:21:26.905Z,4.97
2022-11-08T15:23:54.544Z,4.07
2022-11-08T15:26:23.904Z,3.95
2022-11-08T15:28:58.816Z,21.02
2022-11-08T15:31:27.263Z,8.18
2022-11-08T15:33:54.194Z,8.23
2022-11-08T15:36:30.139Z,7.30
2022-11-08T15:38:56.719Z,9.15
2022-11-08T15:41:30.768Z,11.65
2022-11-08T15:44:12.941Z,7.80
2022-11-08T15:46:39.591Z,9.77
2022-11-08T15:49:15.558Z,5.93
2022-11-08T15:51:43.447Z,8.93
2022-11-08T15:54:09.966Z,9.68
2022-11-08T15:56:37.031Z,5.25
2022-11-08T15:59:03.619Z,7.53
2022-11-08T16:01:30.179Z,4.28
2022-11-08T16:03:56.752Z,6.22
2022-11-08T16:06:23.282Z,6.95
2022-11-08T16:08:51.327Z,5.13
2022-11-08T16:11:20.572Z,5.47
2022-11-08T16:13:47.120Z,3.65
2022-11-08T16:16:15.745Z,5.05
2022-11-08T16:18:42.794Z,19.42
2022-11-08T16:21:10.062Z,19.38
2022-11-08T16:23:36.617Z,20.88
2022-11-08T16:26:05.952Z,13.52
2022-11-08T16:28:34.315Z,9.38
2022-11-08T16:31:01.260Z,8.63
2022-11-08T16:33:29.101Z,10.60
2022-11-08T16:35:57.085Z,9.25
2022-11-08T16:38:25.343Z,4.30
2022-11-08T16:40:51.863Z,7.57
2022-11-08T16:43:19.796Z,7.30
2022-11-08T16:48:34.029Z,6.13
2022-11-08T16:51:02.239Z,4.78
2022-11-08T16:53:29.324Z,11.63
2022-11-08T16:55:56.273Z,7.47
2022-11-08T16:58:24.380Z,5.70
2022-11-08T17:00:51.364Z,2.97
2022-11-08T17:03:20.423Z,4.95
2022-11-08T17:05:47.377Z,18.88
2022-11-08T17:08:14.398Z,8.75
2022-11-08T17:10:41.379Z,10.50
2022-11-08T17:13:10.395Z,5.85
2022-11-08T17:15:38.248Z,4.13
2022-11-08T17:18:04.868Z,3.97
2022-11-08T17:20:31.403Z,6.97
2022-11-08T17:22:58.004Z,5.53
2022-11-08T17:25:24.513Z,6.00
2022-11-08T17:27:51.779Z,5.55
2022-11-08T17:30:22.541Z,5.40
2022-11-08T17:32:54.611Z,7.82
2022-11-08T17:35:21.288Z,8.15
2022-11-08T17:37:47.869Z,5.00
2022-11-08T17:40:14.644Z,19.13
2022-11-08T17:42:41.223Z,22.40
2022-11-08T17:45:09.947Z,26.85
2022-11-08T17:47:36.988Z,18.30
2022-11-08T17:50:06.086Z,14.77
2022-11-08T17:52:32.980Z,7.97
2022-11-08T17:54:59.504Z,12.20
2022-11-08T17:57:26.078Z,6.22
2022-11-08T17:59:52.632Z,5.85
2022-11-08T18:02:19.327Z,6.72
2022-11-08T18:04:45.965Z,6.00
2022-11-08T18:07:13.965Z,8.55
2022-11-08T18:09:40.539Z,8.07
2022-11-08T18:12:07.152Z,6.18
2022-11-08T18:14:33.682Z,8.52
2022-11-08T18:17:00.207Z,7.60
2022-11-08T18:19:26.751Z,5.78
2022-11-08T18:21:53.322Z,4.38
2022-11-08T18:24:21.474Z,6.20
2022-11-08T18:26:48.024Z,5.32
2022-11-08T18:29:14.607Z,8.20
2022-11-08T18:31:41.179Z,4.57
2022-11-08T18:34:07.851Z,4.50
2022-11-08T18:36:34.678Z,6.00
2022-11-08T18:39:02.016Z,5.85
2022-11-08T18:41:31.871Z,5.95
2022-11-08T18:44:00.184Z,11.27
2022-11-08T18:46:28.635Z,9.40
2022-11-08T18:48:55.492Z,6.63
2022-11-08T18:51:23.126Z,5.72
2022-11-08T18:53:49.923Z,9.05
2022-11-08T18:56:16.620Z,7.15
2022-11-08T18:58:44.591Z,11.68
2022-11-08T19:01:11.658Z,8.13
2022-11-08T19:03:38.788Z,5.50
2022-11-08T19:06:05.974Z,9.23
2022-11-08T19:08:33.435Z,7.68
2022-11-08T19:11:01.794Z,5.15
2022-11-08T19:13:29.888Z,9.93
2022-11-08T19:16:12.184Z,7.93
2022-11-08T19:18:38.797Z,9.25
2022-11-08T19:21:07.386Z,5.35
2022-11-08T19:23:34.498Z,7.53
2022-11-08T19:26:03.480Z,11.85
2022-11-08T19:28:33.483Z,5.82
2022-11-08T19:31:00.270Z,10.93
2022-11-08T19:33:30.268Z,3.67
2022-11-08T19:36:00.206Z,7.05
2022-11-08T19:38:26.744Z,6.60
2022-11-08T19:40:53.282Z,8.07
2022-11-08T19:43:20.091Z,9.43
2022-11-08T19:45:52.652Z,5.28
2022-11-08T19:48:19.602Z,8.57
2022-11-08T19:50:47.743Z,6.03
2022-11-08T19:53:14.332Z,11.30
2022-11-08T19:55:40.874Z,4.25
2022-11-08T19:58:07.436Z,7.28
2022-11-08T20:00:34.007Z,5.57
2022-11-08T20:03:00.535Z,3.80
2022-11-08T20:05:27.074Z,4.65
2022-11-08T20:07:54.983Z,5.15
2022-11-08T20:10:21.530Z,4.85
2022-11-08T20:12:48.038Z,4.35
2022-11-08T20:15:14.582Z,4.78
2022-11-08T20:17:41.160Z,4.03
2022-11-08T20:20:08.890Z,4.35
2022-11-08T20:22:35.397Z,8.43
2022-11-08T20:25:03.485Z,4.63
2022-11-08T20:27:29.998Z,4.05
2022-11-08T20:29:56.543Z,5.18
2022-11-08T20:32:23.067Z,5.55
2022-11-08T20:34:50.808Z,3.88
2022-11-08T20:37:17.438Z,3.58
2022-11-08T20:39:43.959Z,4.57
2022-11-08T20:42:11.832Z,4.13
2022-11-08T20:44:38.371Z,5.18
2022-11-08T20:47:06.657Z,4.22
2022-11-08T20:49:33.559Z,7.28
2022-11-08T20:52:00.115Z,7.22
2022-11-08T20:54:26.631Z,6.25
2022-11-08T20:56:53.215Z,8.13
2022-11-08T20:59:21.090Z,6.80
2022-11-08T21:01:47.698Z,4.82
2022-11-08T21:04:14.255Z,5.68
2022-11-08T21:06:41.002Z,5.50
2022-11-08T21:09:32.508Z,4.05
2022-11-08T21:11:54.463Z,7.57
2022-11-08T21:14:22.538Z,8.10
2022-11-08T21:19:35.826Z,5.63
2022-11-08T21:22:02.373Z,7.47
2022-11-08T21:24:28.880Z,5.60
2022-11-08T21:26:55.390Z,6.40
2022-11-08T21:29:23.244Z,6.45
2022-11-08T21:31:49.772Z,6.80
2022-11-08T21:34:16.254Z,5.90
2022-11-08T21:36:42.784Z,7.95
2022-11-08T21:39:09.293Z,6.60
2022-11-08T21:41:35.828Z,6.72
2022-11-08T21:44:02.344Z,7.00
2022-11-08T21:46:30.235Z,5.53
2022-11-08T21:48:58.498Z,6.32
2022-11-08T21:51:25.648Z,6.28
2022-11-08T21:53:54.934Z,4.97
2022-11-08T21:56:23.304Z,6.57
2022-11-08T21:58:49.840Z,5.63
2022-11-08T22:01:16.620Z,11.25
2022-11-08T22:03:44.674Z,6.25
2022-11-08T22:06:11.397Z,8.68
2022-11-08T22:08:38.142Z,5.70
2022-11-08T22:11:05.134Z,8.60
2022-11-08T22:13:31.715Z,8.43
2022-11-08T22:15:58.228Z,10.95
2022-11-08T22:18:36.826Z,7.57
2022-11-08T22:21:12.577Z,5.70
2022-11-08T22:23:39.172Z,6.07
2022-11-08T22:26:06.070Z,4.63
2022-11-08T22:28:32.585Z,9.70
2022-11-08T22:30:59.105Z,5.53
2022-11-08T22:33:25.641Z,6.80
2022-11-08T22:35:52.195Z,7.85
2022-11-08T22:38:20.394Z,8.02
2022-11-08T22:40:47.528Z,6.18
2022-11-08T22:43:14.050Z,7.35
2022-11-08T22:45:42.180Z,5.95
2022-11-08T22:48:09.519Z,7.80
2022-11-08T22:50:36.827Z,3.75
2022-11-08T22:53:03.421Z,5.30
2022-11-08T22:55:31.270Z,5.43
2022-11-08T22:57:57.783Z,4.43
2022-11-08T23:00:24.586Z,5.18
2022-11-08T23:02:51.155Z,6.53
2022-11-08T23:05:17.704Z,4.78
2022-11-08T23:07:44.205Z,5.15
2022-11-08T23:10:10.875Z,5.78
2022-11-08T23:12:38.749Z,7.30
2022-11-08T23:15:06.277Z,5.05
2022-11-08T23:17:34.086Z,5.65
2022-11-08T23:20:00.602Z,6.07
2022-11-08T23:22:27.141Z,4.85
2022-11-08T23:24:53.905Z,6.32
2022-11-08T23:27:20.670Z,5.57
2022-11-08T23:29:48.786Z,7.13
2022-11-08T23:32:15.318Z,8.90
2022-11-08T23:34:41.875Z,10.07
2022-11-08T23:37:08.417Z,8.23
2022-11-08T23:39:34.913Z,12.90
2022-11-08T23:42:01.417Z,10.45
2022-11-08T23:44:27.969Z,8.65
2022-11-08T23:46:57.364Z,9.95
2022-11-08T23:49:24.326Z,9.02
2022-11-08T23:51:51.662Z,11.75
2022-11-08T23:54:18.513Z,11.23
2022-11-08T23:56:45.363Z,8.23
2022-11-08T23:59:13.402Z,9.10
